createdAt,value
2019-05-05T00:02:04.443Z,9.26
2019-05-05T00:07:08.364Z,9.24
2019-05-05T00:12:40.005Z,9.30
2019-05-05T00:17:45.003Z,9.16
2019-05-05T00:22:48.178Z,9.11
2019-05-05T00:27:51.136Z,9.05
2019-05-05T00:32:54.873Z,8.93
2019-05-05T00:37:58.059Z,8.92
2019-05-05T00:43:01.004Z,8.78
2019-05-05T00:48:22.091Z,8.78
2019-05-05T00:53:25.141Z,8.68
2019-05-05T00:58:30.013Z,8.48
2019-05-05T01:03:34.792Z,8.48
2019-05-05T01:08:38.049Z,8.35
2019-05-05T01:13:41.042Z,8.27
2019-05-05T01:18:45.084Z,8.42
2019-05-05T01:23:48.418Z,8.37
2019-05-05T01:28:52.169Z,8.16
2019-05-05T01:34:05.316Z,8.10
2019-05-05T01:39:47.958Z,7.78
2019-05-05T01:44:51.031Z,7.64
2019-05-05T01:49:54.519Z,7.62
2019-05-05T01:54:57.715Z,7.57
2019-05-05T02:00:00.669Z,7.51
2019-05-05T02:05:04.696Z,7.46
2019-05-05T02:10:07.997Z,7.28
2019-05-05T02:15:11.158Z,7.23
2019-05-05T02:20:42.043Z,7.10
2019-05-05T02:25:45.362Z,7.16
2019-05-05T02:30:56.202Z,7.06
2019-05-05T02:35:59.312Z,7.13
2019-05-05T02:41:05.099Z,6.93
2019-05-05T02:46:25.107Z,6.88
2019-05-05T02:51:28.499Z,6.85
2019-05-05T02:56:43.763Z,6.66
2019-05-05T03:01:53.729Z,6.64
2019-05-05T03:06:59.669Z,6.26
2019-05-05T03:12:04.998Z,6.26
2019-05-05T03:17:14.120Z,6.12
2019-05-05T03:22:17.829Z,5.98
2019-05-05T03:27:23.611Z,5.87
2019-05-05T03:32:27.166Z,5.81
2019-05-05T03:37:30.148Z,5.53
2019-05-05T03:42:47.106Z,5.50
2019-05-05T03:47:50.176Z,5.61
2019-05-05T03:52:54.436Z,5.65
2019-05-05T03:57:58.008Z,5.76
2019-05-05T04:03:07.389Z,5.70
2019-05-05T04:08:11.401Z,5.49
2019-05-05T04:13:15.865Z,5.30
2019-05-05T04:18:23.803Z,5.29
2019-05-05T04:23:27.055Z,5.09
2019-05-05T04:28:30.122Z,4.94
2019-05-05T04:33:34.151Z,4.98
2019-05-05T04:38:37.358Z,4.97
2019-05-05T04:43:40.364Z,5.16
2019-05-05T04:49:05.653Z,5.14
2019-05-05T04:54:33.448Z,5.21
2019-05-05T04:59:36.635Z,5.27
2019-05-05T05:04:54.071Z,5.07
2019-05-05T05:09:57.060Z,4.83
2019-05-05T05:15:00.024Z,4.85
2019-05-05T05:20:04.760Z,4.74
2019-05-05T05:25:08.049Z,4.78
2019-05-05T05:30:11.242Z,4.64
2019-05-05T05:35:14.354Z,4.61
2019-05-05T05:40:23.707Z,4.55
2019-05-05T05:45:40.581Z,4.35
2019-05-05T05:50:48.820Z,4.29
2019-05-05T05:55:53.794Z,4.32
2019-05-05T06:00:57.696Z,3.92
2019-05-05T06:06:00.765Z,3.99
2019-05-05T06:11:04.472Z,3.86
2019-05-05T06:16:07.871Z,3.91
2019-05-05T06:21:10.893Z,3.89
2019-05-05T06:26:15.187Z,3.90
2019-05-05T06:31:18.511Z,3.82
2019-05-05T06:36:23.338Z,3.79
2019-05-05T06:41:34.077Z,3.89
2019-05-05T06:46:56.293Z,3.97
2019-05-05T06:51:59.264Z,4.01
2019-05-05T06:57:04.338Z,3.84
2019-05-05T07:02:07.336Z,3.84
2019-05-05T07:07:10.350Z,3.97
2019-05-05T07:12:13.926Z,3.91
2019-05-05T07:17:17.158Z,3.85
2019-05-05T07:22:20.111Z,3.98
2019-05-05T07:27:24.312Z,3.93
2019-05-05T07:32:27.645Z,3.99
2019-05-05T07:37:30.744Z,3.93
2019-05-05T07:42:33.783Z,3.99
2019-05-05T07:47:36.841Z,4.11
2019-05-05T07:52:39.809Z,4.12
2019-05-05T07:57:43.520Z,4.04
2019-05-05T08:02:46.834Z,4.12
2019-05-05T08:07:49.814Z,4.27
2019-05-05T08:12:54.198Z,4.11
2019-05-05T08:18:35.200Z,4.22
2019-05-05T08:23:56.221Z,4.34
2019-05-05T08:29:05.219Z,4.41
2019-05-05T08:34:08.410Z,4.41
2019-05-05T08:39:13.741Z,4.38
2019-05-05T08:44:18.076Z,4.38
2019-05-05T08:49:21.352Z,4.37
2019-05-05T08:54:24.563Z,4.47
2019-05-05T08:59:27.522Z,4.37
2019-05-05T09:04:30.630Z,4.51
2019-05-05T09:09:33.719Z,4.59
2019-05-05T09:14:36.747Z,4.64
2019-05-05T09:19:39.867Z,4.54
2019-05-05T09:25:14.746Z,4.70
2019-05-05T09:30:35.089Z,4.58
2019-05-05T09:35:38.399Z,4.70
2019-05-05T09:40:44.060Z,4.74
2019-05-05T09:45:47.360Z,4.74
2019-05-05T09:50:50.316Z,4.79
2019-05-05T09:55:54.704Z,4.84
2019-05-05T10:00:58.025Z,4.82
2019-05-05T10:06:01.000Z,4.97
2019-05-05T10:11:04.268Z,4.95
2019-05-05T10:16:07.414Z,4.97
2019-05-05T10:21:10.858Z,5.04
2019-05-05T10:26:14.927Z,5.12
2019-05-05T10:31:18.217Z,5.15
2019-05-05T10:36:21.358Z,5.11
2019-05-05T10:41:24.360Z,5.18
2019-05-05T10:46:27.501Z,5.32
2019-05-05T10:51:30.553Z,5.37
2019-05-05T10:56:34.518Z,5.57
2019-05-05T11:01:37.988Z,5.62
2019-05-05T11:06:40.987Z,5.46
2019-05-05T11:11:44.157Z,5.52
2019-05-05T11:16:47.252Z,5.50
2019-05-05T11:21:50.252Z,5.64
2019-05-05T11:26:53.925Z,5.78
2019-05-05T11:31:59.082Z,5.81
2019-05-05T11:37:10.855Z,5.87
2019-05-05T11:42:14.613Z,5.78
2019-05-05T11:47:17.819Z,5.78
2019-05-05T11:52:20.794Z,5.73
2019-05-05T11:57:24.047Z,5.89
2019-05-05T12:02:27.276Z,5.92
2019-05-05T12:07:30.713Z,6.11
2019-05-05T12:12:33.733Z,6.34
2019-05-05T12:17:37.199Z,6.61
2019-05-05T12:22:40.703Z,6.64
2019-05-05T12:28:00.412Z,6.49
2019-05-05T12:33:04.746Z,6.40
2019-05-05T12:38:08.189Z,6.42
2019-05-05T12:43:11.282Z,6.51
2019-05-05T12:48:24.097Z,6.39
2019-05-05T12:53:27.359Z,6.50
2019-05-05T12:58:30.389Z,6.47
2019-05-05T13:03:34.631Z,6.58
2019-05-05T13:08:37.795Z,6.48
2019-05-05T13:13:40.795Z,6.74
2019-05-05T13:18:43.917Z,6.80
2019-05-05T13:24:18.411Z,6.85
2019-05-05T13:29:21.462Z,6.76
2019-05-05T13:34:24.514Z,6.71
2019-05-05T13:39:27.536Z,6.81
2019-05-05T13:44:48.750Z,6.92
2019-05-05T13:49:54.261Z,6.75
2019-05-05T13:54:57.398Z,6.80
2019-05-05T14:00:00.509Z,7.03
2019-05-05T14:05:04.641Z,7.06
2019-05-05T14:10:08.016Z,6.99
2019-05-05T14:15:20.656Z,6.98
2019-05-05T14:20:24.023Z,6.99
2019-05-05T14:25:28.809Z,7.08
2019-05-05T14:30:43.594Z,7.11
2019-05-05T14:35:56.598Z,7.11
2019-05-05T14:40:59.632Z,7.09
2019-05-05T14:46:03.719Z,7.06
2019-05-05T14:51:07.019Z,7.14
2019-05-05T14:56:10.141Z,7.09
2019-05-05T15:01:14.389Z,7.03
2019-05-05T15:06:46.396Z,7.05
2019-05-05T15:11:56.177Z,6.93
2019-05-05T15:16:59.168Z,7.01
2019-05-05T15:22:02.171Z,7.01
2019-05-05T15:27:05.171Z,7.05
2019-05-05T15:32:08.269Z,7.13
2019-05-05T15:37:11.254Z,7.18
2019-05-05T15:42:14.516Z,7.30
2019-05-05T15:47:17.509Z,7.29
2019-05-05T15:52:20.617Z,7.30
2019-05-05T15:57:24.138Z,7.39
2019-05-05T16:02:27.309Z,7.49
2019-05-05T16:07:31.018Z,7.49
2019-05-05T16:12:36.993Z,7.43
2019-05-05T16:17:45.928Z,7.50
2019-05-05T16:23:14.690Z,7.43
2019-05-05T16:28:17.695Z,7.37
2019-05-05T16:33:24.161Z,7.35
2019-05-05T16:38:27.328Z,7.36
2019-05-05T16:43:30.753Z,7.17
2019-05-05T16:48:34.320Z,7.12
2019-05-05T16:53:37.822Z,7.15
2019-05-05T16:58:40.830Z,7.21
2019-05-05T17:03:45.796Z,7.34
2019-05-05T17:08:49.093Z,7.32
2019-05-05T17:14:03.929Z,6.92
2019-05-05T17:19:26.798Z,6.83
2019-05-05T17:24:30.211Z,7.01
2019-05-05T17:29:34.467Z,6.90
2019-05-05T17:34:37.752Z,6.63
2019-05-05T17:39:48.714Z,6.52
2019-05-05T17:45:14.453Z,6.70
2019-05-05T17:50:24.877Z,6.73
2019-05-05T17:55:29.588Z,6.73
2019-05-05T18:00:36.894Z,6.75
2019-05-05T18:05:59.258Z,6.46
2019-05-05T18:11:07.194Z,6.50
2019-05-05T18:16:10.744Z,6.53
2019-05-05T18:21:14.228Z,6.57
2019-05-05T18:26:17.461Z,6.52
2019-05-05T18:31:20.579Z,6.58
2019-05-05T18:36:23.743Z,6.58
2019-05-05T18:41:34.450Z,6.55
2019-05-05T18:46:37.933Z,6.60
2019-05-05T18:51:41.017Z,6.53
2019-05-05T18:56:44.276Z,6.57
2019-05-05T19:01:54.339Z,6.55
2019-05-05T19:07:01.794Z,6.61
2019-05-05T19:12:04.875Z,6.67
2019-05-05T19:17:08.044Z,6.62
2019-05-05T19:22:13.858Z,6.60
2019-05-05T19:27:17.113Z,6.64
2019-05-05T19:32:20.221Z,6.65
2019-05-05T19:37:23.927Z,6.58
2019-05-05T19:42:27.172Z,6.63
2019-05-05T19:47:30.324Z,6.71
2019-05-05T19:52:34.823Z,6.77
2019-05-05T19:57:38.420Z,6.83
2019-05-05T20:02:43.649Z,6.80
2019-05-05T20:07:46.856Z,6.65
2019-05-05T20:12:49.881Z,6.73
2019-05-05T20:17:53.920Z,6.87
2019-05-05T20:22:57.151Z,7.19
2019-05-05T20:28:00.317Z,7.16
2019-05-05T20:33:13.653Z,7.32
2019-05-05T20:38:25.014Z,7.46
2019-05-05T20:43:29.136Z,7.37
2019-05-05T20:48:34.473Z,7.50
2019-05-05T20:53:37.477Z,7.53
2019-05-05T20:58:40.530Z,7.55
2019-05-05T21:03:43.595Z,7.55
2019-05-05T21:08:47.043Z,7.55
2019-05-05T21:13:50.000Z,7.44
2019-05-05T21:18:53.906Z,7.42
2019-05-05T21:23:59.123Z,7.42
2019-05-05T21:29:04.424Z,7.26
2019-05-05T21:34:07.199Z,7.27
2019-05-05T21:39:11.622Z,7.37
2019-05-05T21:44:14.881Z,7.41
2019-05-05T21:49:18.014Z,7.45
2019-05-05T21:54:29.132Z,7.41
2019-05-05T21:59:33.704Z,7.33
2019-05-05T22:04:36.991Z,7.13
2019-05-05T22:09:40.144Z,6.94
2019-05-05T22:14:44.001Z,6.99
2019-05-05T22:19:57.187Z,7.15
2019-05-05T22:25:00.407Z,7.13
2019-05-05T22:30:10.063Z,7.07
2019-05-05T22:35:09.900Z,7.04
2019-05-05T22:40:20.481Z,6.97
2019-05-05T22:45:23.732Z,6.96
2019-05-05T22:50:26.900Z,6.97
2019-05-05T22:55:29.882Z,7.07
2019-05-05T23:00:34.850Z,7.07
2019-05-05T23:05:59.641Z,7.07
2019-05-05T23:11:04.068Z,6.90
2019-05-05T23:16:29.138Z,6.94
2019-05-05T23:21:44.412Z,6.96
2019-05-05T23:26:49.174Z,6.90
2019-05-05T23:31:53.827Z,6.69
2019-05-05T23:36:57.310Z,6.32
2019-05-05T23:42:00.302Z,6.20
2019-05-05T23:47:04.393Z,6.43
2019-05-05T23:52:07.558Z,6.65
2019-05-05T23:57:10.500Z,6.78
